sensor_id;sensor_type;location;lat;lon;timestamp;P1;durP1;ratioP1;P2;durP2;ratioP2
37771;SDS011;23610;59.380;24.642;2022-09-01T00:00:19;0.57;;;0.55;;
37771;SDS011;23610;59.380;24.642;2022-09-01T00:05:24;0.95;;;0.85;;
37771;SDS011;23610;59.380;24.642;2022-09-01T00:10:26;0.50;;;0.50;;
37771;SDS011;23610;59.380;24.642;2022-09-01T00:15:29;2.03;;;0.50;;
37771;SDS011;23610;59.380;24.642;2022-09-01T00:20:32;2.50;;;0.70;;
37771;SDS011;23610;59.380;24.642;2022-09-01T00:25:34;0.88;;;0.65;;
37771;SDS011;23610;59.380;24.642;2022-09-01T00:30:40;2.47;;;0.60;;
37771;SDS011;23610;59.380;24.642;2022-09-01T00:35:43;0.95;;;0.70;;
37771;SDS011;23610;59.380;24.642;2022-09-01T00:40:46;0.60;;;0.60;;
37771;SDS011;23610;59.380;24.642;2022-09-01T00:45:49;0.90;;;0.60;;
37771;SDS011;23610;59.380;24.642;2022-09-01T00:50:52;1.20;;;0.68;;
37771;SDS011;23610;59.380;24.642;2022-09-01T00:55:55;2.35;;;0.70;;
37771;SDS011;23610;59.380;24.642;2022-09-01T01:00:58;0.50;;;0.50;;
37771;SDS011;23610;59.380;24.642;2022-09-01T01:06:02;1.30;;;0.50;;
37771;SDS011;23610;59.380;24.642;2022-09-01T01:11:11;0.90;;;0.77;;
37771;SDS011;23610;59.380;24.642;2022-09-01T01:16:18;0.57;;;0.57;;
37771;SDS011;23610;59.380;24.642;2022-09-01T01:21:26;0.85;;;0.80;;
37771;SDS011;23610;59.380;24.642;2022-09-01T01:26:59;0.75;;;0.73;;
37771;SDS011;23610;59.380;24.642;2022-09-01T01:32:04;0.40;;;0.40;;
37771;SDS011;23610;59.380;24.642;2022-09-01T01:37:13;1.92;;;0.50;;
37771;SDS011;23610;59.380;24.642;2022-09-01T01:42:16;1.50;;;0.63;;
37771;SDS011;23610;59.380;24.642;2022-09-01T01:47:19;2.50;;;0.63;;
37771;SDS011;23610;59.380;24.642;2022-09-01T01:52:22;1.73;;;0.60;;
37771;SDS011;23610;59.380;24.642;2022-09-01T01:57:27;2.53;;;0.60;;
37771;SDS011;23610;59.380;24.642;2022-09-01T02:07:34;0.50;;;0.43;;
37771;SDS011;23610;59.380;24.642;2022-09-01T02:12:38;2.47;;;0.82;;
37771;SDS011;23610;59.380;24.642;2022-09-01T02:17:42;0.60;;;0.60;;
37771;SDS011;23610;59.380;24.642;2022-09-01T02:22:45;0.60;;;0.60;;
37771;SDS011;23610;59.380;24.642;2022-09-01T02:27:49;1.15;;;0.60;;
37771;SDS011;23610;59.380;24.642;2022-09-01T02:32:53;0.43;;;0.40;;
37771;SDS011;23610;59.380;24.642;2022-09-01T02:37:56;3.10;;;0.60;;
37771;SDS011;23610;59.380;24.642;2022-09-01T02:43:01;3.28;;;0.80;;
37771;SDS011;23610;59.380;24.642;2022-09-01T02:48:04;0.70;;;0.50;;
37771;SDS011;23610;59.380;24.642;2022-09-01T02:53:11;1.65;;;0.60;;
37771;SDS011;23610;59.380;24.642;2022-09-01T02:58:16;0.77;;;0.70;;
37771;SDS011;23610;59.380;24.642;2022-09-01T03:03:26;1.33;;;0.88;;
37771;SDS011;23610;59.380;24.642;2022-09-01T03:08:29;0.55;;;0.55;;
37771;SDS011;23610;59.380;24.642;2022-09-01T03:13:38;0.77;;;0.50;;
37771;SDS011;23610;59.380;24.642;2022-09-01T03:18:42;0.40;;;0.40;;
37771;SDS011;23610;59.380;24.642;2022-09-01T03:23:45;1.30;;;0.60;;
37771;SDS011;23610;59.380;24.642;2022-09-01T03:28:50;1.02;;;0.40;;
37771;SDS011;23610;59.380;24.642;2022-09-01T03:33:54;0.50;;;0.47;;
37771;SDS011;23610;59.380;24.642;2022-09-01T03:39:02;2.08;;;0.40;;
37771;SDS011;23610;59.380;24.642;2022-09-01T03:44:05;0.40;;;0.40;;
37771;SDS011;23610;59.380;24.642;2022-09-01T03:49:13;2.17;;;0.93;;
37771;SDS011;23610;59.380;24.642;2022-09-01T03:54:25;0.45;;;0.45;;
37771;SDS011;23610;59.380;24.642;2022-09-01T04:04:34;0.57;;;0.57;;
37771;SDS011;23610;59.380;24.642;2022-09-01T04:09:37;0.80;;;0.80;;
37771;SDS011;23610;59.380;24.642;2022-09-01T04:14:41;0.68;;;0.65;;
37771;SDS011;23610;59.380;24.642;2022-09-01T04:19:43;0.68;;;0.68;;
37771;SDS011;23610;59.380;24.642;2022-09-01T04:24:46;2.33;;;0.45;;
37771;SDS011;23610;59.380;24.642;2022-09-01T04:29:49;4.93;;;0.60;;
37771;SDS011;23610;59.380;24.642;2022-09-01T04:34:59;2.67;;;0.80;;
37771;SDS011;23610;59.380;24.642;2022-09-01T04:40:02;2.40;;;0.70;;
37771;SDS011;23610;59.380;24.642;2022-09-01T04:45:06;0.60;;;0.60;;
37771;SDS011;23610;59.380;24.642;2022-09-01T04:50:17;1.25;;;0.70;;
37771;SDS011;23610;59.380;24.642;2022-09-01T04:56:04;3.60;;;0.88;;
37771;SDS011;23610;59.380;24.642;2022-09-01T05:01:14;0.93;;;0.80;;
37771;SDS011;23610;59.380;24.642;2022-09-01T05:06:19;4.55;;;0.70;;
37771;SDS011;23610;59.380;24.642;2022-09-01T05:11:28;0.50;;;0.50;;
37771;SDS011;23610;59.380;24.642;2022-09-01T05:16:39;5.57;;;2.95;;
37771;SDS011;23610;59.380;24.642;2022-09-01T05:21:44;1.17;;;0.57;;
37771;SDS011;23610;59.380;24.642;2022-09-01T05:26:47;0.43;;;0.43;;
37771;SDS011;23610;59.380;24.642;2022-09-01T05:31:51;0.63;;;0.63;;
37771;SDS011;23610;59.380;24.642;2022-09-01T05:36:56;2.15;;;0.60;;
37771;SDS011;23610;59.380;24.642;2022-09-01T05:42:01;0.63;;;0.47;;
37771;SDS011;23610;59.380;24.642;2022-09-01T05:47:06;1.05;;;0.38;;
37771;SDS011;23610;59.380;24.642;2022-09-01T05:52:23;3.03;;;0.70;;
37771;SDS011;23610;59.380;24.642;2022-09-01T05:57:27;1.33;;;0.70;;
37771;SDS011;23610;59.380;24.642;2022-09-01T06:02:35;0.75;;;0.75;;
37771;SDS011;23610;59.380;24.642;2022-09-01T06:07:40;2.05;;;0.98;;
37771;SDS011;23610;59.380;24.642;2022-09-01T06:12:45;1.20;;;0.60;;
37771;SDS011;23610;59.380;24.642;2022-09-01T06:17:50;2.45;;;0.60;;
37771;SDS011;23610;59.380;24.642;2022-09-01T06:22:53;0.80;;;0.57;;
37771;SDS011;23610;59.380;24.642;2022-09-01T06:27:56;0.52;;;0.52;;
37771;SDS011;23610;59.380;24.642;2022-09-01T06:32:59;3.22;;;0.93;;
37771;SDS011;23610;59.380;24.642;2022-09-01T06:43:19;1.80;;;0.70;;
37771;SDS011;23610;59.380;24.642;2022-09-01T06:48:24;3.72;;;0.93;;
37771;SDS011;23610;59.380;24.642;2022-09-01T06:53:35;2.17;;;0.50;;
37771;SDS011;23610;59.380;24.642;2022-09-01T06:58:41;1.85;;;0.80;;
37771;SDS011;23610;59.380;24.642;2022-09-01T07:03:50;0.47;;;0.40;;
37771;SDS011;23610;59.380;24.642;2022-09-01T07:09:04;0.53;;;0.53;;
37771;SDS011;23610;59.380;24.642;2022-09-01T07:14:48;3.45;;;0.73;;
37771;SDS011;23610;59.380;24.642;2022-09-01T07:20:10;2.17;;;0.60;;
37771;SDS011;23610;59.380;24.642;2022-09-01T07:25:29;1.13;;;0.47;;
37771;SDS011;23610;59.380;24.642;2022-09-01T07:31:24;1.65;;;0.85;;
37771;SDS011;23610;59.380;24.642;2022-09-01T07:36:51;0.85;;;0.50;;
37771;SDS011;23610;59.380;24.642;2022-09-01T07:42:17;0.70;;;0.55;;
37771;SDS011;23610;59.380;24.642;2022-09-01T07:48:07;0.60;;;0.50;;
37771;SDS011;23610;59.380;24.642;2022-09-01T07:53:19;3.45;;;0.68;;
37771;SDS011;23610;59.380;24.642;2022-09-01T07:58:32;7.57;;;2.13;;
37771;SDS011;23610;59.380;24.642;2022-09-01T08:03:37;0.47;;;0.47;;
37771;SDS011;23610;59.380;24.642;2022-09-01T08:08:40;1.02;;;0.50;;
37771;SDS011;23610;59.380;24.642;2022-09-01T08:13:43;0.40;;;0.40;;
37771;SDS011;23610;59.380;24.642;2022-09-01T08:18:53;8.63;;;0.65;;
37771;SDS011;23610;59.380;24.642;2022-09-01T08:24:18;0.95;;;0.55;;
37771;SDS011;23610;59.380;24.642;2022-09-01T08:29:22;1.95;;;0.35;;
37771;SDS011;23610;59.380;24.642;2022-09-01T08:34:25;0.95;;;0.70;;
37771;SDS011;23610;59.380;24.642;2022-09-01T08:39:28;1.13;;;0.40;;
37771;SDS011;23610;59.380;24.642;2022-09-01T08:44:45;1.15;;;0.40;;
37771;SDS011;23610;59.380;24.642;2022-09-01T08:50:28;0.30;;;0.30;;
37771;SDS011;23610;59.380;24.642;2022-09-01T08:55:55;0.43;;;0.30;;
37771;SDS011;23610;59.380;24.642;2022-09-01T09:01:01;1.75;;;0.43;;
37771;SDS011;23610;59.380;24.642;2022-09-01T09:06:18;2.22;;;0.40;;
37771;SDS011;23610;59.380;24.642;2022-09-01T09:18:11;2.45;;;0.80;;
37771;SDS011;23610;59.380;24.642;2022-09-01T09:23:41;2.63;;;0.63;;
37771;SDS011;23610;59.380;24.642;2022-09-01T09:28:48;1.45;;;0.40;;
37771;SDS011;23610;59.380;24.642;2022-09-01T09:33:51;1.63;;;0.40;;
37771;SDS011;23610;59.380;24.642;2022-09-01T09:49:32;2.75;;;0.55;;
37771;SDS011;23610;59.380;24.642;2022-09-01T09:55:00;0.95;;;0.60;;
37771;SDS011;23610;59.380;24.642;2022-09-01T10:00:15;0.50;;;0.30;;
37771;SDS011;23610;59.380;24.642;2022-09-01T10:10:49;1.08;;;0.50;;
37771;SDS011;23610;59.380;24.642;2022-09-01T10:15:59;3.28;;;0.43;;
37771;SDS011;23610;59.380;24.642;2022-09-01T10:21:23;2.40;;;0.60;;
37771;SDS011;23610;59.380;24.642;2022-09-01T10:26:40;0.50;;;0.50;;
37771;SDS011;23610;59.380;24.642;2022-09-01T10:31:47;0.40;;;0.40;;
37771;SDS011;23610;59.380;24.642;2022-09-01T10:37:09;0.60;;;0.50;;
37771;SDS011;23610;59.380;24.642;2022-09-01T10:42:16;0.50;;;0.47;;
37771;SDS011;23610;59.380;24.642;2022-09-01T10:47:27;1.10;;;0.70;;
37771;SDS011;23610;59.380;24.642;2022-09-01T11:08:44;6.97;;;1.25;;
37771;SDS011;23610;59.380;24.642;2022-09-01T11:13:58;1.30;;;1.10;;
37771;SDS011;23610;59.380;24.642;2022-09-01T11:29:57;2.72;;;0.70;;
37771;SDS011;23610;59.380;24.642;2022-09-01T11:35:14;1.02;;;0.47;;
37771;SDS011;23610;59.380;24.642;2022-09-01T11:40:23;2.47;;;0.50;;
37771;SDS011;23610;59.380;24.642;2022-09-01T11:45:33;0.60;;;0.55;;
37771;SDS011;23610;59.380;24.642;2022-09-01T11:50:45;1.48;;;0.50;;
37771;SDS011;23610;59.380;24.642;2022-09-01T12:01:35;3.05;;;0.60;;
37771;SDS011;23610;59.380;24.642;2022-09-01T12:06:39;1.00;;;0.70;;
37771;SDS011;23610;59.380;24.642;2022-09-01T12:11:51;0.60;;;0.60;;
37771;SDS011;23610;59.380;24.642;2022-09-01T12:16:58;2.13;;;0.50;;
37771;SDS011;23610;59.380;24.642;2022-09-01T12:22:06;1.52;;;0.38;;
37771;SDS011;23610;59.380;24.642;2022-09-01T12:27:17;2.63;;;0.50;;
37771;SDS011;23610;59.380;24.642;2022-09-01T12:32:23;0.50;;;0.50;;
37771;SDS011;23610;59.380;24.642;2022-09-01T12:37:26;1.88;;;0.60;;
37771;SDS011;23610;59.380;24.642;2022-09-01T12:42:30;3.47;;;0.40;;
37771;SDS011;23610;59.380;24.642;2022-09-01T12:52:54;0.30;;;0.30;;
37771;SDS011;23610;59.380;24.642;2022-09-01T12:58:03;4.28;;;0.40;;
37771;SDS011;23610;59.380;24.642;2022-09-01T13:03:12;0.47;;;0.40;;
37771;SDS011;23610;59.380;24.642;2022-09-01T13:08:19;6.22;;;3.10;;
37771;SDS011;23610;59.380;24.642;2022-09-01T13:13:29;3.95;;;0.40;;
37771;SDS011;23610;59.380;24.642;2022-09-01T13:18:32;0.45;;;0.45;;
37771;SDS011;23610;59.380;24.642;2022-09-01T13:23:55;2.83;;;0.50;;
37771;SDS011;23610;59.380;24.642;2022-09-01T13:28:58;1.17;;;0.65;;
37771;SDS011;23610;59.380;24.642;2022-09-01T13:34:01;1.55;;;0.57;;
37771;SDS011;23610;59.380;24.642;2022-09-01T13:39:24;0.70;;;0.40;;
37771;SDS011;23610;59.380;24.642;2022-09-01T13:44:26;0.40;;;0.40;;
37771;SDS011;23610;59.380;24.642;2022-09-01T13:49:29;1.92;;;0.40;;
37771;SDS011;23610;59.380;24.642;2022-09-01T13:54:51;0.52;;;0.52;;
37771;SDS011;23610;59.380;24.642;2022-09-01T13:59:54;3.72;;;1.05;;
37771;SDS011;23610;59.380;24.642;2022-09-01T14:04:58;1.58;;;0.75;;
37771;SDS011;23610;59.380;24.642;2022-09-01T14:10:01;0.55;;;0.50;;
37771;SDS011;23610;59.380;24.642;2022-09-01T14:15:05;0.75;;;0.63;;
37771;SDS011;23610;59.380;24.642;2022-09-01T14:20:16;0.43;;;0.38;;
37771;SDS011;23610;59.380;24.642;2022-09-01T14:25:22;0.38;;;0.38;;
37771;SDS011;23610;59.380;24.642;2022-09-01T14:30:26;1.42;;;0.38;;
37771;SDS011;23610;59.380;24.642;2022-09-01T14:35:32;0.90;;;0.90;;
37771;SDS011;23610;59.380;24.642;2022-09-01T14:40:37;4.70;;;0.80;;
37771;SDS011;23610;59.380;24.642;2022-09-01T14:45:42;0.70;;;0.60;;
37771;SDS011;23610;59.380;24.642;2022-09-01T14:50:48;0.65;;;0.32;;
37771;SDS011;23610;59.380;24.642;2022-09-01T14:55:51;1.48;;;1.23;;
37771;SDS011;23610;59.380;24.642;2022-09-01T15:00:57;4.63;;;0.75;;
37771;SDS011;23610;59.380;24.642;2022-09-01T15:06:20;0.45;;;0.40;;
37771;SDS011;23610;59.380;24.642;2022-09-01T15:11:24;2.10;;;0.98;;
37771;SDS011;23610;59.380;24.642;2022-09-01T15:16:26;1.95;;;0.32;;
37771;SDS011;23610;59.380;24.642;2022-09-01T15:21:29;0.60;;;0.43;;
37771;SDS011;23610;59.380;24.642;2022-09-01T15:26:34;0.90;;;0.77;;
37771;SDS011;23610;59.380;24.642;2022-09-01T15:31:38;2.57;;;0.93;;
37771;SDS011;23610;59.380;24.642;2022-09-01T15:36:42;0.80;;;0.70;;
37771;SDS011;23610;59.380;24.642;2022-09-01T15:41:45;1.92;;;0.98;;
37771;SDS011;23610;59.380;24.642;2022-09-01T15:46:48;3.55;;;1.15;;
37771;SDS011;23610;59.380;24.642;2022-09-01T15:51:51;0.55;;;0.55;;
37771;SDS011;23610;59.380;24.642;2022-09-01T15:56:58;0.98;;;0.40;;
37771;SDS011;23610;59.380;24.642;2022-09-01T16:02:00;0.65;;;0.50;;
37771;SDS011;23610;59.380;24.642;2022-09-01T16:07:03;1.33;;;0.88;;
37771;SDS011;23610;59.380;24.642;2022-09-01T16:12:06;1.25;;;0.65;;
37771;SDS011;23610;59.380;24.642;2022-09-01T16:17:16;0.90;;;0.70;;
37771;SDS011;23610;59.380;24.642;2022-09-01T16:22:43;0.93;;;0.75;;
37771;SDS011;23610;59.380;24.642;2022-09-01T16:28:26;0.73;;;0.40;;
37771;SDS011;23610;59.380;24.642;2022-09-01T16:33:55;0.40;;;0.40;;
37771;SDS011;23610;59.380;24.642;2022-09-01T16:51:03;0.70;;;0.60;;
37771;SDS011;23610;59.380;24.642;2022-09-01T16:56:36;1.40;;;0.77;;
37771;SDS011;23610;59.380;24.642;2022-09-01T17:02:49;1.10;;;1.00;;
37771;SDS011;23610;59.380;24.642;2022-09-01T17:08:26;0.40;;;0.40;;
37771;SDS011;23610;59.380;24.642;2022-09-01T17:13:56;0.30;;;0.30;;
37771;SDS011;23610;59.380;24.642;2022-09-01T17:19:14;1.45;;;0.40;;
37771;SDS011;23610;59.380;24.642;2022-09-01T17:29:59;0.40;;;0.40;;
37771;SDS011;23610;59.380;24.642;2022-09-01T17:35:23;0.60;;;0.60;;
37771;SDS011;23610;59.380;24.642;2022-09-01T17:46:40;0.80;;;0.80;;
37771;SDS011;23610;59.380;24.642;2022-09-01T18:15:49;0.80;;;0.57;;
37771;SDS011;23610;59.380;24.642;2022-09-01T18:21:08;4.45;;;0.82;;
37771;SDS011;23610;59.380;24.642;2022-09-01T18:43:11;0.63;;;0.40;;
37771;SDS011;23610;59.380;24.642;2022-09-01T19:04:55;1.13;;;0.73;;
37771;SDS011;23610;59.380;24.642;2022-09-01T19:10:19;3.63;;;0.50;;
37771;SDS011;23610;59.380;24.642;2022-09-01T19:21:20;0.98;;;0.40;;
37771;SDS011;23610;59.380;24.642;2022-09-01T19:26:39;2.67;;;0.80;;
37771;SDS011;23610;59.380;24.642;2022-09-01T19:32:26;0.40;;;0.40;;
37771;SDS011;23610;59.380;24.642;2022-09-01T19:38:04;0.70;;;0.70;;
37771;SDS011;23610;59.380;24.642;2022-09-01T19:43:40;0.50;;;0.50;;
37771;SDS011;23610;59.380;24.642;2022-09-01T19:54:55;2.97;;;0.80;;
37771;SDS011;23610;59.380;24.642;2022-09-01T20:00:21;0.57;;;0.50;;
37771;SDS011;23610;59.380;24.642;2022-09-01T20:05:43;1.15;;;1.05;;
37771;SDS011;23610;59.380;24.642;2022-09-01T20:11:09;1.85;;;0.90;;
37771;SDS011;23610;59.380;24.642;2022-09-01T20:16:54;1.35;;;1.02;;
37771;SDS011;23610;59.380;24.642;2022-09-01T20:27:57;6.30;;;3.25;;
37771;SDS011;23610;59.380;24.642;2022-09-01T20:34:19;21.05;;;9.77;;
37771;SDS011;23610;59.380;24.642;2022-09-01T20:39:14;29.77;;;14.00;;
37771;SDS011;23610;59.380;24.642;2022-09-01T20:45:06;28.17;;;14.63;;
37771;SDS011;23610;59.380;24.642;2022-09-01T21:01:50;8.98;;;4.82;;
37771;SDS011;23610;59.380;24.642;2022-09-01T21:07:52;11.13;;;3.70;;
37771;SDS011;23610;59.380;24.642;2022-09-01T21:18:48;2.45;;;1.63;;
37771;SDS011;23610;59.380;24.642;2022-09-01T21:24:13;1.48;;;0.82;;
37771;SDS011;23610;59.380;24.642;2022-09-01T21:29:25;0.88;;;0.70;;
37771;SDS011;23610;59.380;24.642;2022-09-01T21:34:55;1.90;;;0.60;;
37771;SDS011;23610;59.380;24.642;2022-09-01T21:40:05;1.48;;;0.43;;
37771;SDS011;23610;59.380;24.642;2022-09-01T21:45:16;0.50;;;0.40;;
37771;SDS011;23610;59.380;24.642;2022-09-01T21:50:31;2.83;;;0.52;;
37771;SDS011;23610;59.380;24.642;2022-09-01T21:55:36;0.45;;;0.30;;
37771;SDS011;23610;59.380;24.642;2022-09-01T22:00:45;2.53;;;0.47;;
37771;SDS011;23610;59.380;24.642;2022-09-01T22:05:50;0.68;;;0.68;;
37771;SDS011;23610;59.380;24.642;2022-09-01T22:10:53;0.65;;;0.43;;
37771;SDS011;23610;59.380;24.642;2022-09-01T22:15:56;0.50;;;0.50;;
37771;SDS011;23610;59.380;24.642;2022-09-01T22:21:00;0.25;;;0.25;;
37771;SDS011;23610;59.380;24.642;2022-09-01T22:26:08;0.40;;;0.40;;
37771;SDS011;23610;59.380;24.642;2022-09-01T22:31:19;2.45;;;0.50;;
37771;SDS011;23610;59.380;24.642;2022-09-01T22:36:33;1.48;;;0.70;;
37771;SDS011;23610;59.380;24.642;2022-09-01T22:42:09;1.05;;;0.50;;
37771;SDS011;23610;59.380;24.642;2022-09-01T22:47:18;0.68;;;0.40;;
37771;SDS011;23610;59.380;24.642;2022-09-01T22:52:43;0.60;;;0.60;;
37771;SDS011;23610;59.380;24.642;2022-09-01T22:58:05;0.43;;;0.43;;
37771;SDS011;23610;59.380;24.642;2022-09-01T23:03:24;0.30;;;0.30;;
37771;SDS011;23610;59.380;24.642;2022-09-01T23:08:48;0.73;;;0.40;;
37771;SDS011;23610;59.380;24.642;2022-09-01T23:13:52;0.90;;;0.35;;
37771;SDS011;23610;59.380;24.642;2022-09-01T23:18:59;2.75;;;0.50;;
37771;SDS011;23610;59.380;24.642;2022-09-01T23:24:04;3.10;;;0.47;;
37771;SDS011;23610;59.380;24.642;2022-09-01T23:29:13;0.40;;;0.40;;
37771;SDS011;23610;59.380;24.642;2022-09-01T23:34:18;0.30;;;0.30;;
37771;SDS011;23610;59.380;24.642;2022-09-01T23:39:22;0.55;;;0.55;;
37771;SDS011;23610;59.380;24.642;2022-09-01T23:44:30;0.75;;;0.30;;
37771;SDS011;23610;59.380;24.642;2022-09-01T23:49:39;2.05;;;0.50;;
37771;SDS011;23610;59.380;24.642;2022-09-01T23:54:42;0.60;;;0.47;;
37771;SDS011;23610;59.380;24.642;2022-09-01T23:59:48;1.23;;;0.50;;
